sensor_id;sensor_type;location;lat;lon;timestamp;pressure;altitude;pressure_sealevel;temperature;humidity
84049;BME280;74136;51.684;7.862;2024-02-14T00:00:43;100860.53;;;7.30;74.97
84049;BME280;74136;51.684;7.862;2024-02-14T00:03:10;100871.72;;;7.35;75.11
84049;BME280;74136;51.684;7.862;2024-02-14T00:05:36;100866.03;;;7.37;75.05
84049;BME280;74136;51.684;7.862;2024-02-14T00:08:02;100863.09;;;7.38;75.32
84049;BME280;74136;51.684;7.862;2024-02-14T00:10:29;100862.91;;;7.40;75.85
84049;BME280;74136;51.684;7.862;2024-02-14T00:12:55;100862.25;;;7.38;75.85
84049;BME280;74136;51.684;7.862;2024-02-14T00:15:22;100861.63;;;7.42;75.60
84049;BME280;74136;51.684;7.862;2024-02-14T00:17:48;100868.56;;;7.45;75.90
84049;BME280;74136;51.684;7.862;2024-02-14T00:20:14;100869.22;;;7.47;76.13
84049;BME280;74136;51.684;7.862;2024-02-14T00:22:40;100867.53;;;7.46;76.19
84049;BME280;74136;51.684;7.862;2024-02-14T00:25:07;100860.16;;;7.46;76.29
84049;BME280;74136;51.684;7.862;2024-02-14T00:27:33;100861.84;;;7.47;76.31
84049;BME280;74136;51.684;7.862;2024-02-14T00:29:59;100846.06;;;7.49;76.55
84049;BME280;74136;51.684;7.862;2024-02-14T00:32:26;100850.25;;;7.52;76.68
84049;BME280;74136;51.684;7.862;2024-02-14T00:34:52;100843.91;;;7.51;76.54
84049;BME280;74136;51.684;7.862;2024-02-14T00:37:19;100841.19;;;7.51;76.93
84049;BME280;74136;51.684;7.862;2024-02-14T00:39:45;100846.91;;;7.50;77.13
84049;BME280;74136;51.684;7.862;2024-02-14T00:42:14;100838.88;;;7.48;77.00
84049;BME280;74136;51.684;7.862;2024-02-14T00:44:40;100834.25;;;7.49;77.00
84049;BME280;74136;51.684;7.862;2024-02-14T00:47:07;100834.25;;;7.49;77.22
84049;BME280;74136;51.684;7.862;2024-02-14T00:49:34;100834.66;;;7.46;77.31
84049;BME280;74136;51.684;7.862;2024-02-14T00:52:00;100839.94;;;7.47;77.28
84049;BME280;74136;51.684;7.862;2024-02-14T00:54:27;100836.16;;;7.48;77.56
84049;BME280;74136;51.684;7.862;2024-02-14T00:56:53;100828.97;;;7.47;77.91
84049;BME280;74136;51.684;7.862;2024-02-14T00:59:20;100835.50;;;7.46;78.10
84049;BME280;74136;51.684;7.862;2024-02-14T01:01:46;100832.97;;;7.45;78.61
84049;BME280;74136;51.684;7.862;2024-02-14T01:04:12;100828.75;;;7.42;79.32
84049;BME280;74136;51.684;7.862;2024-02-14T01:06:39;100816.97;;;7.35;79.72
84049;BME280;74136;51.684;7.862;2024-02-14T01:09:05;100818.03;;;7.34;79.33
84049;BME280;74136;51.684;7.862;2024-02-14T01:11:31;100819.28;;;7.31;79.52
84049;BME280;74136;51.684;7.862;2024-02-14T01:13:57;100810.66;;;7.28;79.50
84049;BME280;74136;51.684;7.862;2024-02-14T01:16:25;100812.56;;;7.27;79.60
84049;BME280;74136;51.684;7.862;2024-02-14T01:18:52;100812.56;;;7.27;80.16
84049;BME280;74136;51.684;7.862;2024-02-14T01:21:18;100799.28;;;7.24;79.83
84049;BME280;74136;51.684;7.862;2024-02-14T01:23:44;100807.94;;;7.28;79.59
84049;BME280;74136;51.684;7.862;2024-02-14T01:26:10;100805.19;;;7.28;79.81
84049;BME280;74136;51.684;7.862;2024-02-14T01:28:37;100804.94;;;7.29;79.41
84049;BME280;74136;51.684;7.862;2024-02-14T01:31:04;100794.63;;;7.31;79.77
84049;BME280;74136;51.684;7.862;2024-02-14T01:33:30;100794.63;;;7.31;79.53
84049;BME280;74136;51.684;7.862;2024-02-14T01:35:56;100795.47;;;7.32;79.79
84049;BME280;74136;51.684;7.862;2024-02-14T01:38:23;100794.63;;;7.31;79.73
84049;BME280;74136;51.684;7.862;2024-02-14T01:40:49;100791.91;;;7.31;79.55
84049;BME280;74136;51.684;7.862;2024-02-14T01:43:16;100783.06;;;7.29;79.39
84049;BME280;74136;51.684;7.862;2024-02-14T01:45:42;100775.69;;;7.30;79.43
84049;BME280;74136;51.684;7.862;2024-02-14T01:48:09;100776.97;;;7.34;79.25
84049;BME280;74136;51.684;7.862;2024-02-14T01:50:35;100766.66;;;7.36;79.05
84049;BME280;74136;51.684;7.862;2024-02-14T01:53:02;100774.44;;;7.39;78.88
84049;BME280;74136;51.684;7.862;2024-02-14T01:55:32;100763.47;;;7.46;78.84
84049;BME280;74136;51.684;7.862;2024-02-14T01:58:00;100757.38;;;7.50;78.26
84049;BME280;74136;51.684;7.862;2024-02-14T02:00:27;100763.03;;;7.55;78.70
84049;BME280;74136;51.684;7.862;2024-02-14T02:02:53;100751.25;;;7.55;78.37
84049;BME280;74136;51.684;7.862;2024-02-14T02:05:21;100769.34;;;7.56;78.21
84049;BME280;74136;51.684;7.862;2024-02-14T02:07:48;100759.03;;;7.58;78.24
84049;BME280;74136;51.684;7.862;2024-02-14T02:10:14;100758.84;;;7.59;78.39
84049;BME280;74136;51.684;7.862;2024-02-14T02:12:41;100768.94;;;7.59;78.05
84049;BME280;74136;51.684;7.862;2024-02-14T02:15:08;100754.19;;;7.60;78.21
84049;BME280;74136;51.684;7.862;2024-02-14T02:17:39;100763.06;;;7.62;78.12
84049;BME280;74136;51.684;7.862;2024-02-14T02:20:06;100768.28;;;7.63;78.32
84049;BME280;74136;51.684;7.862;2024-02-14T02:22:33;100767.22;;;7.64;78.20
84049;BME280;74136;51.684;7.862;2024-02-14T02:25:04;100760.91;;;7.64;78.14
84049;BME280;74136;51.684;7.862;2024-02-14T02:27:36;100760.50;;;7.67;78.50
84049;BME280;74136;51.684;7.862;2024-02-14T02:30:07;100752.28;;;7.67;78.73
84049;BME280;74136;51.684;7.862;2024-02-14T02:32:36;100745.13;;;7.66;79.13
84049;BME280;74136;51.684;7.862;2024-02-14T02:35:03;100750.38;;;7.67;78.64
84049;BME280;74136;51.684;7.862;2024-02-14T02:37:30;100748.28;;;7.70;79.32
84049;BME280;74136;51.684;7.862;2024-02-14T02:39:56;100747.22;;;7.71;79.39
84049;BME280;74136;51.684;7.862;2024-02-14T02:42:23;100739.63;;;7.73;79.14
84049;BME280;74136;51.684;7.862;2024-02-14T02:44:50;100751.19;;;7.75;79.01
84049;BME280;74136;51.684;7.862;2024-02-14T02:47:16;100742.97;;;7.75;79.15
84049;BME280;74136;51.684;7.862;2024-02-14T02:49:44;100741.94;;;7.76;79.48
84049;BME280;74136;51.684;7.862;2024-02-14T02:52:10;100743.63;;;7.77;79.55
84049;BME280;74136;51.684;7.862;2024-02-14T02:54:37;100750.78;;;7.78;79.72
84049;BME280;74136;51.684;7.862;2024-02-14T02:57:07;100749.09;;;7.77;80.06
84049;BME280;74136;51.684;7.862;2024-02-14T02:59:35;100749.50;;;7.80;80.13
84049;BME280;74136;51.684;7.862;2024-02-14T03:02:02;100751.19;;;7.81;80.25
84049;BME280;74136;51.684;7.862;2024-02-14T03:04:28;100748.47;;;7.81;80.38
84049;BME280;74136;51.684;7.862;2024-02-14T03:06:57;100734.75;;;7.81;80.58
84049;BME280;74136;51.684;7.862;2024-02-14T03:09:23;100732.66;;;7.83;80.39
84049;BME280;74136;51.684;7.862;2024-02-14T03:11:52;100747.19;;;7.84;80.89
84049;BME280;74136;51.684;7.862;2024-02-14T03:14:18;100748.63;;;7.86;80.45
84049;BME280;74136;51.684;7.862;2024-02-14T03:16:44;100742.94;;;7.88;80.74
84049;BME280;74136;51.684;7.862;2024-02-14T03:19:10;100749.47;;;7.87;80.85
84049;BME280;74136;51.684;7.862;2024-02-14T03:21:37;100741.25;;;7.87;80.79
84049;BME280;74136;51.684;7.862;2024-02-14T03:24:03;100753.69;;;7.89;80.97
84049;BME280;74136;51.684;7.862;2024-02-14T03:26:31;100743.16;;;7.86;80.79
84049;BME280;74136;51.684;7.862;2024-02-14T03:29:03;100743.78;;;7.88;81.36
84049;BME280;74136;51.684;7.862;2024-02-14T03:31:32;100739.16;;;7.89;82.02
84049;BME280;74136;51.684;7.862;2024-02-14T03:33:58;100745.69;;;7.88;81.41
84049;BME280;74136;51.684;7.862;2024-02-14T03:36:24;100751.81;;;7.90;81.45
84049;BME280;74136;51.684;7.862;2024-02-14T03:38:54;100740.84;;;7.90;81.73
84049;BME280;74136;51.684;7.862;2024-02-14T03:41:20;100735.16;;;7.91;81.21
84049;BME280;74136;51.684;7.862;2024-02-14T03:43:46;100733.25;;;7.92;81.52
84049;BME280;74136;51.684;7.862;2024-02-14T03:46:12;100742.09;;;7.94;81.32
84049;BME280;74136;51.684;7.862;2024-02-14T03:48:39;100736.38;;;7.95;81.72
84049;BME280;74136;51.684;7.862;2024-02-14T03:51:07;100741.44;;;7.98;81.40
84049;BME280;74136;51.684;7.862;2024-02-14T03:53:33;100741.44;;;7.98;81.50
84049;BME280;74136;51.684;7.862;2024-02-14T03:56:00;100743.53;;;7.96;82.16
84049;BME280;74136;51.684;7.862;2024-02-14T03:58:26;100746.53;;;7.95;82.52
84049;BME280;74136;51.684;7.862;2024-02-14T04:00:53;100747.34;;;7.95;82.61
84049;BME280;74136;51.684;7.862;2024-02-14T04:03:19;100743.16;;;7.93;82.93
84049;BME280;74136;51.684;7.862;2024-02-14T04:05:45;100749.91;;;7.90;83.26
84049;BME280;74136;51.684;7.862;2024-02-14T04:08:13;100751.38;;;7.86;83.96
84049;BME280;74136;51.684;7.862;2024-02-14T04:10:39;100748.84;;;7.85;84.47
84049;BME280;74136;51.684;7.862;2024-02-14T04:13:06;100743.81;;;7.82;84.44
84049;BME280;74136;51.684;7.862;2024-02-14T04:15:32;100739.41;;;7.81;84.25
84049;BME280;74136;51.684;7.862;2024-02-14T04:17:58;100749.31;;;7.82;84.44
84049;BME280;74136;51.684;7.862;2024-02-14T04:20:26;100754.56;;;7.83;84.39
84049;BME280;74136;51.684;7.862;2024-02-14T04:22:52;100751.19;;;7.81;84.43
84049;BME280;74136;51.684;7.862;2024-02-14T04:25:18;100748.47;;;7.81;84.29
84049;BME280;74136;51.684;7.862;2024-02-14T04:27:44;100738.13;;;7.83;84.32
84049;BME280;74136;51.684;7.862;2024-02-14T04:30:11;100750.75;;;7.84;84.75
84049;BME280;74136;51.684;7.862;2024-02-14T04:32:37;100749.09;;;7.83;84.89
84049;BME280;74136;51.684;7.862;2024-02-14T04:35:03;100751.59;;;7.85;84.72
84049;BME280;74136;51.684;7.862;2024-02-14T04:37:30;100752.44;;;7.85;84.76
84049;BME280;74136;51.684;7.862;2024-02-14T04:39:56;100742.94;;;7.88;85.21
84049;BME280;74136;51.684;7.862;2024-02-14T04:42:22;100742.09;;;7.87;84.95
84049;BME280;74136;51.684;7.862;2024-02-14T04:44:49;100744.44;;;7.90;84.92
84049;BME280;74136;51.684;7.862;2024-02-14T04:47:15;100742.53;;;7.91;85.06
84049;BME280;74136;51.684;7.862;2024-02-14T04:49:41;100740.41;;;7.93;85.11
84049;BME280;74136;51.684;7.862;2024-02-14T04:52:07;100747.34;;;7.95;84.66
84049;BME280;74136;51.684;7.862;2024-02-14T04:54:34;100746.91;;;7.98;84.63
84049;BME280;74136;51.684;7.862;2024-02-14T04:57:00;100748.19;;;8.02;84.12
84049;BME280;74136;51.684;7.862;2024-02-14T04:59:26;100746.91;;;8.05;84.12
84049;BME280;74136;51.684;7.862;2024-02-14T05:01:53;100755.53;;;8.09;84.43
84049;BME280;74136;51.684;7.862;2024-02-14T05:04:19;100754.47;;;8.10;84.02
84049;BME280;74136;51.684;7.862;2024-02-14T05:06:46;100751.31;;;8.13;83.94
84049;BME280;74136;51.684;7.862;2024-02-14T05:09:12;100762.91;;;8.15;84.18
84049;BME280;74136;51.684;7.862;2024-02-14T05:11:41;100756.56;;;8.14;84.38
84049;BME280;74136;51.684;7.862;2024-02-14T05:14:07;100770.50;;;8.13;85.01
84049;BME280;74136;51.684;7.862;2024-02-14T05:16:33;100771.75;;;8.10;84.98
84049;BME280;74136;51.684;7.862;2024-02-14T05:18:59;100763.75;;;8.09;85.63
84049;BME280;74136;51.684;7.862;2024-02-14T05:21:26;100767.16;;;8.04;85.99
84049;BME280;74136;51.684;7.862;2024-02-14T05:23:53;100768.84;;;7.98;86.55
84049;BME280;74136;51.684;7.862;2024-02-14T05:26:19;100768.47;;;7.95;87.22
84049;BME280;74136;51.684;7.862;2024-02-14T05:28:46;100769.09;;;7.90;88.27
84049;BME280;74136;51.684;7.862;2024-02-14T05:31:12;100765.28;;;7.85;88.87
84049;BME280;74136;51.684;7.862;2024-02-14T05:33:38;100771.44;;;7.80;89.55
84049;BME280;74136;51.684;7.862;2024-02-14T05:36:05;100776.09;;;7.73;90.50
84049;BME280;74136;51.684;7.862;2024-02-14T05:38:32;100762.81;;;7.70;91.16
84049;BME280;74136;51.684;7.862;2024-02-14T05:41:00;100772.28;;;7.67;91.60
84049;BME280;74136;51.684;7.862;2024-02-14T05:43:26;100762.81;;;7.63;91.93
84049;BME280;74136;51.684;7.862;2024-02-14T05:45:52;100765.78;;;7.62;92.25
84049;BME280;74136;51.684;7.862;2024-02-14T05:48:19;100764.94;;;7.61;92.00
84049;BME280;74136;51.684;7.862;2024-02-14T05:50:46;100772.53;;;7.59;92.89
84049;BME280;74136;51.684;7.862;2024-02-14T05:53:12;100776.09;;;7.60;93.10
84049;BME280;74136;51.684;7.862;2024-02-14T05:55:38;100767.88;;;7.60;92.87
84049;BME280;74136;51.684;7.862;2024-02-14T05:58:04;100777.34;;;7.64;92.85
84049;BME280;74136;51.684;7.862;2024-02-14T06:00:31;100782.41;;;7.67;92.42
84049;BME280;74136;51.684;7.862;2024-02-14T06:02:57;100789.38;;;7.70;92.36
84049;BME280;74136;51.684;7.862;2024-02-14T06:05:23;100782.63;;;7.72;92.11
84049;BME280;74136;51.684;7.862;2024-02-14T06:07:49;100780.91;;;7.78;91.83
84049;BME280;74136;51.684;7.862;2024-02-14T06:10:16;100782.38;;;7.80;91.61
84049;BME280;74136;51.684;7.862;2024-02-14T06:12:43;100793.78;;;7.84;91.87
84049;BME280;74136;51.684;7.862;2024-02-14T06:15:10;100793.31;;;7.87;91.60
84049;BME280;74136;51.684;7.862;2024-02-14T06:17:36;100792.69;;;7.91;92.04
84049;BME280;74136;51.684;7.862;2024-02-14T06:20:03;100800.06;;;7.91;92.18
84049;BME280;74136;51.684;7.862;2024-02-14T06:22:32;100800.28;;;7.89;92.33
84049;BME280;74136;51.684;7.862;2024-02-14T06:25:00;100804.06;;;7.88;92.45
84049;BME280;74136;51.684;7.862;2024-02-14T06:27:26;100800.50;;;7.88;92.59
84049;BME280;74136;51.684;7.862;2024-02-14T06:29:53;100803.44;;;7.86;93.15
84049;BME280;74136;51.684;7.862;2024-02-14T06:32:20;100808.91;;;7.86;93.16
84049;BME280;74136;51.684;7.862;2024-02-14T06:34:48;100809.75;;;7.87;92.51
84049;BME280;74136;51.684;7.862;2024-02-14T06:37:14;100818.63;;;7.89;92.78
84049;BME280;74136;51.684;7.862;2024-02-14T06:39:40;100828.53;;;7.90;92.87
84049;BME280;74136;51.684;7.862;2024-02-14T06:42:07;100818.41;;;7.90;92.50
84049;BME280;74136;51.684;7.862;2024-02-14T06:44:33;100822.19;;;7.89;93.08
84049;BME280;74136;51.684;7.862;2024-02-14T06:46:59;100828.31;;;7.91;93.09
84049;BME280;74136;51.684;7.862;2024-02-14T06:49:25;100824.53;;;7.92;93.25
84049;BME280;74136;51.684;7.862;2024-02-14T06:51:51;100841.81;;;7.93;93.37
84049;BME280;74136;51.684;7.862;2024-02-14T06:54:18;100839.06;;;7.93;93.34
84049;BME280;74136;51.684;7.862;2024-02-14T06:56:45;100841.16;;;7.91;94.07
84049;BME280;74136;51.684;7.862;2024-02-14T06:59:11;100843.06;;;7.90;94.20
84049;BME280;74136;51.684;7.862;2024-02-14T07:01:38;100847.69;;;7.90;94.36
84049;BME280;74136;51.684;7.862;2024-02-14T07:04:04;100846.22;;;7.87;95.11
84049;BME280;74136;51.684;7.862;2024-02-14T07:06:31;100849.81;;;7.88;94.87
84049;BME280;74136;51.684;7.862;2024-02-14T07:08:57;100851.50;;;7.89;94.51
84049;BME280;74136;51.684;7.862;2024-02-14T07:11:23;100851.50;;;7.89;94.92
84049;BME280;74136;51.684;7.862;2024-02-14T07:13:50;100851.28;;;7.90;95.07
84049;BME280;74136;51.684;7.862;2024-02-14T07:16:16;100856.56;;;7.92;95.45
84049;BME280;74136;51.684;7.862;2024-02-14T07:18:43;100860.13;;;7.92;95.71
84049;BME280;74136;51.684;7.862;2024-02-14T07:21:09;100858.03;;;7.94;95.45
84049;BME280;74136;51.684;7.862;2024-02-14T07:23:36;100854.84;;;7.97;95.80
84049;BME280;74136;51.684;7.862;2024-02-14T07:26:02;100855.06;;;7.96;95.58
84049;BME280;74136;51.684;7.862;2024-02-14T07:28:28;100857.38;;;7.99;95.64
84049;BME280;74136;51.684;7.862;2024-02-14T07:30:55;100868.13;;;8.00;95.76
84049;BME280;74136;51.684;7.862;2024-02-14T07:33:21;100875.72;;;8.05;95.61
84049;BME280;74136;51.684;7.862;2024-02-14T07:35:48;100871.69;;;8.08;95.88
84049;BME280;74136;51.684;7.862;2024-02-14T07:38:14;100878.88;;;8.09;95.50
84049;BME280;74136;51.684;7.862;2024-02-14T07:40:40;100875.69;;;8.12;95.33
84049;BME280;74136;51.684;7.862;2024-02-14T07:43:07;100874.66;;;8.13;95.16
84049;BME280;74136;51.684;7.862;2024-02-14T07:45:34;100879.72;;;8.16;94.98
84049;BME280;74136;51.684;7.862;2024-02-14T07:48:00;100881.78;;;8.20;94.69
84049;BME280;74136;51.684;7.862;2024-02-14T07:50:29;100883.47;;;8.21;95.34
84049;BME280;74136;51.684;7.862;2024-02-14T07:52:56;100874.22;;;8.22;94.93
84049;BME280;74136;51.684;7.862;2024-02-14T07:55:23;100891.50;;;8.23;95.47
84049;BME280;74136;51.684;7.862;2024-02-14T07:57:50;100888.13;;;8.21;95.31
84049;BME280;74136;51.684;7.862;2024-02-14T08:00:16;100890.47;;;8.17;95.76
84049;BME280;74136;51.684;7.862;2024-02-14T08:02:49;100890.22;;;8.19;95.51
84049;BME280;74136;51.684;7.862;2024-02-14T08:05:15;100882.63;;;8.21;95.79
84049;BME280;74136;51.684;7.862;2024-02-14T08:07:42;100889.59;;;8.23;95.52
84049;BME280;74136;51.684;7.862;2024-02-14T08:10:08;100892.13;;;8.25;96.05
84049;BME280;74136;51.684;7.862;2024-02-14T08:12:34;100894.03;;;8.24;96.20
84049;BME280;74136;51.684;7.862;2024-02-14T08:15:01;100892.56;;;8.22;96.21
84049;BME280;74136;51.684;7.862;2024-02-14T08:17:32;100887.91;;;8.22;96.67
84049;BME280;74136;51.684;7.862;2024-02-14T08:19:59;100892.34;;;8.23;96.44
84049;BME280;74136;51.684;7.862;2024-02-14T08:22:26;100887.50;;;8.25;97.28
84049;BME280;74136;51.684;7.862;2024-02-14T08:24:53;100896.56;;;8.26;96.93
84049;BME280;74136;51.684;7.862;2024-02-14T08:27:19;100893.59;;;8.27;97.25
84049;BME280;74136;51.684;7.862;2024-02-14T08:29:45;100899.94;;;8.28;97.61
84049;BME280;74136;51.684;7.862;2024-02-14T08:32:12;100898.03;;;8.28;97.38
84049;BME280;74136;51.684;7.862;2024-02-14T08:34:38;100893.16;;;8.30;97.86
84049;BME280;74136;51.684;7.862;2024-02-14T08:37:04;100903.94;;;8.32;97.73
84049;BME280;74136;51.684;7.862;2024-02-14T08:39:30;100900.38;;;8.31;97.79
84049;BME280;74136;51.684;7.862;2024-02-14T08:41:57;100903.75;;;8.33;97.15
84049;BME280;74136;51.684;7.862;2024-02-14T08:44:23;100891.72;;;8.34;97.31
84049;BME280;74136;51.684;7.862;2024-02-14T08:46:49;100895.72;;;8.38;97.23
84049;BME280;74136;51.684;7.862;2024-02-14T08:49:15;100899.06;;;8.40;97.07
84049;BME280;74136;51.684;7.862;2024-02-14T08:51:41;100907.72;;;8.44;96.80
84049;BME280;74136;51.684;7.862;2024-02-14T08:54:10;100899.06;;;8.47;97.08
84049;BME280;74136;51.684;7.862;2024-02-14T08:56:37;100907.94;;;8.49;96.58
84049;BME280;74136;51.684;7.862;2024-02-14T08:59:03;100900.31;;;8.51;96.64
84049;BME280;74136;51.684;7.862;2024-02-14T09:01:30;100911.47;;;8.56;96.55
84049;BME280;74136;51.684;7.862;2024-02-14T09:03:57;100905.38;;;8.61;96.09
84049;BME280;74136;51.684;7.862;2024-02-14T09:06:25;100899.63;;;8.62;95.59
84049;BME280;74136;51.684;7.862;2024-02-14T09:08:52;100904.91;;;8.70;95.25
84049;BME280;74136;51.684;7.862;2024-02-14T09:11:19;100906.13;;;8.74;95.21
84049;BME280;74136;51.684;7.862;2024-02-14T09:13:46;100910.34;;;8.77;94.84
84049;BME280;74136;51.684;7.862;2024-02-14T09:16:19;100915.81;;;8.84;94.86
84049;BME280;74136;51.684;7.862;2024-02-14T09:18:48;100908.19;;;8.86;94.36
84049;BME280;74136;51.684;7.862;2024-02-14T09:21:14;100912.84;;;8.92;94.18
84049;BME280;74136;51.684;7.862;2024-02-14T09:23:41;100920.00;;;8.93;94.16
84049;BME280;74136;51.684;7.862;2024-02-14T09:26:08;100918.28;;;8.98;93.60
84049;BME280;74136;51.684;7.862;2024-02-14T09:28:34;100921.00;;;9.05;93.25
84049;BME280;74136;51.684;7.862;2024-02-14T09:31:01;100920.06;;;9.18;93.22
84049;BME280;74136;51.684;7.862;2024-02-14T09:33:29;100921.53;;;9.27;93.22
84049;BME280;74136;51.684;7.862;2024-02-14T09:35:56;100918.09;;;9.31;92.73
84049;BME280;74136;51.684;7.862;2024-02-14T09:38:22;100919.75;;;9.39;92.51
84049;BME280;74136;51.684;7.862;2024-02-14T09:40:52;100921.84;;;9.43;92.44
84049;BME280;74136;51.684;7.862;2024-02-14T09:43:30;100923.13;;;9.41;92.06
84049;BME280;74136;51.684;7.862;2024-02-14T09:45:58;100930.28;;;9.42;92.25
84049;BME280;74136;51.684;7.862;2024-02-14T09:48:25;100925.66;;;9.42;92.36
84049;BME280;74136;51.684;7.862;2024-02-14T09:50:53;100932.41;;;9.40;92.37
84049;BME280;74136;51.684;7.862;2024-02-14T09:53:21;100937.06;;;9.39;92.04
84049;BME280;74136;51.684;7.862;2024-02-14T09:55:50;100925.91;;;9.34;92.37
84049;BME280;74136;51.684;7.862;2024-02-14T09:58:17;100931.56;;;9.39;92.42
84049;BME280;74136;51.684;7.862;2024-02-14T10:00:43;100938.31;;;9.43;92.17
84049;BME280;74136;51.684;7.862;2024-02-14T10:03:10;100939.56;;;9.47;91.32
84049;BME280;74136;51.684;7.862;2024-02-14T10:05:36;100938.03;;;9.52;90.97
84049;BME280;74136;51.684;7.862;2024-02-14T10:08:03;100937.81;;;9.60;90.61
84049;BME280;74136;51.684;7.862;2024-02-14T10:10:32;100933.31;;;9.65;90.41
84049;BME280;74136;51.684;7.862;2024-02-14T10:13:04;100944.88;;;9.74;89.99
84049;BME280;74136;51.684;7.862;2024-02-14T10:15:30;100935.53;;;9.81;89.30
84049;BME280;74136;51.684;7.862;2024-02-14T10:17:59;100940.53;;;9.91;89.46
84049;BME280;74136;51.684;7.862;2024-02-14T10:20:26;100942.75;;;10.01;89.46
84049;BME280;74136;51.684;7.862;2024-02-14T10:23:00;100940.34;;;10.11;88.59
84049;BME280;74136;51.684;7.862;2024-02-14T10:25:27;100937.75;;;10.23;88.23
84049;BME280;74136;51.684;7.862;2024-02-14T10:27:53;100940.59;;;10.34;87.73
84049;BME280;74136;51.684;7.862;2024-02-14T10:30:20;100948.09;;;10.45;87.49
84049;BME280;74136;51.684;7.862;2024-02-14T10:32:47;100945.97;;;10.47;86.56
84049;BME280;74136;51.684;7.862;2024-02-14T10:35:15;100951.25;;;10.49;86.38
84049;BME280;74136;51.684;7.862;2024-02-14T10:37:43;100945.16;;;10.40;86.75
84049;BME280;74136;51.684;7.862;2024-02-14T10:40:10;100953.31;;;10.29;86.83
84049;BME280;74136;51.684;7.862;2024-02-14T10:42:37;100953.78;;;10.26;87.69
84049;BME280;74136;51.684;7.862;2024-02-14T10:45:03;100961.91;;;10.14;88.55
84049;BME280;74136;51.684;7.862;2024-02-14T10:47:31;100949.94;;;10.02;89.13
84049;BME280;74136;51.684;7.862;2024-02-14T10:50:05;100960.13;;;9.95;90.39
84049;BME280;74136;51.684;7.862;2024-02-14T10:52:34;100949.16;;;9.95;90.67
84049;BME280;74136;51.684;7.862;2024-02-14T10:55:04;100946.25;;;9.90;90.82
84049;BME280;74136;51.684;7.862;2024-02-14T10:57:31;100945.63;;;9.88;91.50
84049;BME280;74136;51.684;7.862;2024-02-14T11:00:10;100953.44;;;9.91;91.81
84049;BME280;74136;51.684;7.862;2024-02-14T11:02:40;100956.31;;;9.96;92.32
84049;BME280;74136;51.684;7.862;2024-02-14T11:05:12;100954.47;;;9.90;92.18
84049;BME280;74136;51.684;7.862;2024-02-14T11:07:47;100961.03;;;9.89;92.84
84049;BME280;74136;51.684;7.862;2024-02-14T11:10:16;100962.94;;;9.88;93.01
84049;BME280;74136;51.684;7.862;2024-02-14T11:12:42;100967.59;;;9.88;92.70
84049;BME280;74136;51.684;7.862;2024-02-14T11:15:20;100963.84;;;9.82;93.01
84049;BME280;74136;51.684;7.862;2024-02-14T11:17:47;100965.13;;;9.79;93.30
84049;BME280;74136;51.684;7.862;2024-02-14T11:20:20;100957.53;;;9.81;93.71
84049;BME280;74136;51.684;7.862;2024-02-14T11:22:53;100961.94;;;9.82;93.42
84049;BME280;74136;51.684;7.862;2024-02-14T11:25:22;100956.84;;;9.86;94.26
84049;BME280;74136;51.684;7.862;2024-02-14T11:27:52;100956.59;;;9.88;93.91
84049;BME280;74136;51.684;7.862;2024-02-14T11:30:31;100956.41;;;9.89;94.23
84049;BME280;74136;51.684;7.862;2024-02-14T11:35:54;100963.34;;;9.92;94.31
84049;BME280;74136;51.684;7.862;2024-02-14T11:38:22;100957.03;;;9.91;94.02
84049;BME280;74136;51.684;7.862;2024-02-14T11:40:49;100957.38;;;9.95;94.22
84049;BME280;74136;51.684;7.862;2024-02-14T11:43:17;100957.84;;;9.92;93.88
84049;BME280;74136;51.684;7.862;2024-02-14T11:45:44;100957.16;;;9.96;93.94
84049;BME280;74136;51.684;7.862;2024-02-14T11:48:12;100960.53;;;9.98;94.05
84049;BME280;74136;51.684;7.862;2024-02-14T11:50:42;100959.03;;;10.02;94.64
84049;BME280;74136;51.684;7.862;2024-02-14T11:53:16;100967.00;;;10.10;94.38
84049;BME280;74136;51.684;7.862;2024-02-14T11:55:44;100958.13;;;10.08;94.33
84049;BME280;74136;51.684;7.862;2024-02-14T11:58:11;100961.06;;;10.13;95.08
84049;BME280;74136;51.684;7.862;2024-02-14T12:00:41;100963.56;;;10.21;95.04
84049;BME280;74136;51.684;7.862;2024-02-14T12:03:11;100953.00;;;10.18;94.90
84049;BME280;74136;51.684;7.862;2024-02-14T12:05:38;100959.13;;;10.20;94.80
84049;BME280;74136;51.684;7.862;2024-02-14T12:08:06;100958.06;;;10.21;94.41
84049;BME280;74136;51.684;7.862;2024-02-14T12:10:34;100962.41;;;10.29;94.42
84049;BME280;74136;51.684;7.862;2024-02-14T12:13:10;100963.25;;;10.30;94.21
84049;BME280;74136;51.684;7.862;2024-02-14T12:15:39;100972.34;;;10.30;93.75
84049;BME280;74136;51.684;7.862;2024-02-14T12:18:05;100969.38;;;10.32;93.48
84049;BME280;74136;51.684;7.862;2024-02-14T12:20:32;100963.44;;;10.35;93.74
84049;BME280;74136;51.684;7.862;2024-02-14T12:22:59;100968.97;;;10.28;92.53
84049;BME280;74136;51.684;7.862;2024-02-14T12:25:26;100966.63;;;10.32;92.41
84049;BME280;74136;51.684;7.862;2024-02-14T12:27:52;100969.78;;;10.35;92.23
84049;BME280;74136;51.684;7.862;2024-02-14T12:30:19;100957.25;;;10.39;92.42
84049;BME280;74136;51.684;7.862;2024-02-14T12:32:46;100956.56;;;10.44;92.33
84049;BME280;74136;51.684;7.862;2024-02-14T12:35:12;100947.25;;;10.45;92.22
84049;BME280;74136;51.684;7.862;2024-02-14T12:37:38;100945.50;;;10.50;91.99
84049;BME280;74136;51.684;7.862;2024-02-14T12:40:05;100951.56;;;10.59;91.65
84049;BME280;74136;51.684;7.862;2024-02-14T12:42:32;100948.50;;;10.67;91.31
84049;BME280;74136;51.684;7.862;2024-02-14T12:44:58;100956.66;;;10.74;90.67
84049;BME280;74136;51.684;7.862;2024-02-14T12:47:25;100945.59;;;10.80;90.64
84049;BME280;74136;51.684;7.862;2024-02-14T12:49:57;100952.53;;;10.83;89.69
84049;BME280;74136;51.684;7.862;2024-02-14T12:52:25;100955.28;;;10.83;89.63
84049;BME280;74136;51.684;7.862;2024-02-14T12:54:51;100948.03;;;10.88;89.86
84049;BME280;74136;51.684;7.862;2024-02-14T12:57:18;100955.38;;;10.94;89.35
84049;BME280;74136;51.684;7.862;2024-02-14T12:59:47;100944.50;;;11.00;89.83
84049;BME280;74136;51.684;7.862;2024-02-14T13:02:13;100950.63;;;11.02;89.22